sensor_id;sensor_type;location;lat;lon;timestamp;pressure;altitude;pressure_sealevel;temperature
9985;BMP180;16737;50.932;6.780;2023-08-06T00:00:03;99142.00;;;20.20
9985;BMP180;16737;50.932;6.780;2023-08-06T00:02:30;99144.00;;;20.30
9985;BMP180;16737;50.932;6.780;2023-08-06T00:04:57;99139.00;;;20.30
9985;BMP180;16737;50.932;6.780;2023-08-06T00:07:26;99131.00;;;20.30
9985;BMP180;16737;50.932;6.780;2023-08-06T00:09:59;99133.00;;;20.20
9985;BMP180;16737;50.932;6.780;2023-08-06T00:12:26;99139.00;;;20.10
9985;BMP180;16737;50.932;6.780;2023-08-06T00:14:53;99132.00;;;20.20
9985;BMP180;16737;50.932;6.780;2023-08-06T00:17:20;99131.00;;;20.10
9985;BMP180;16737;50.932;6.780;2023-08-06T00:19:47;99145.00;;;20.10
9985;BMP180;16737;50.932;6.780;2023-08-06T00:22:14;99126.00;;;20.10
9985;BMP180;16737;50.932;6.780;2023-08-06T00:24:43;99127.00;;;20.00
9985;BMP180;16737;50.932;6.780;2023-08-06T00:27:10;99129.00;;;20.00
9985;BMP180;16737;50.932;6.780;2023-08-06T00:29:36;99122.00;;;20.00
9985;BMP180;16737;50.932;6.780;2023-08-06T00:32:04;99125.00;;;19.90
9985;BMP180;16737;50.932;6.780;2023-08-06T00:34:31;99126.00;;;19.90
9985;BMP180;16737;50.932;6.780;2023-08-06T00:36:58;99130.00;;;19.90
9985;BMP180;16737;50.932;6.780;2023-08-06T00:39:24;99140.00;;;19.80
9985;BMP180;16737;50.932;6.780;2023-08-06T00:41:53;99134.00;;;19.80
9985;BMP180;16737;50.932;6.780;2023-08-06T00:44:20;99138.00;;;19.80
9985;BMP180;16737;50.932;6.780;2023-08-06T00:46:47;99130.00;;;19.80
9985;BMP180;16737;50.932;6.780;2023-08-06T00:49:14;99135.00;;;19.80
9985;BMP180;16737;50.932;6.780;2023-08-06T00:51:42;99139.00;;;19.60
9985;BMP180;16737;50.932;6.780;2023-08-06T00:54:12;99126.00;;;19.70
9985;BMP180;16737;50.932;6.780;2023-08-06T00:56:41;99119.00;;;19.70
9985;BMP180;16737;50.932;6.780;2023-08-06T00:59:11;99115.00;;;19.70
9985;BMP180;16737;50.932;6.780;2023-08-06T01:01:39;99123.00;;;19.70
9985;BMP180;16737;50.932;6.780;2023-08-06T01:04:12;99123.00;;;19.50
9985;BMP180;16737;50.932;6.780;2023-08-06T01:06:47;99124.00;;;19.70
9985;BMP180;16737;50.932;6.780;2023-08-06T01:09:30;99119.00;;;19.70
9985;BMP180;16737;50.932;6.780;2023-08-06T01:12:09;99112.00;;;19.70
9985;BMP180;16737;50.932;6.780;2023-08-06T01:14:50;99124.00;;;19.80
9985;BMP180;16737;50.932;6.780;2023-08-06T01:17:20;99116.00;;;19.80
9985;BMP180;16737;50.932;6.780;2023-08-06T01:19:47;99111.00;;;19.80
9985;BMP180;16737;50.932;6.780;2023-08-06T01:22:15;99118.00;;;19.70
9985;BMP180;16737;50.932;6.780;2023-08-06T01:24:49;99108.00;;;19.90
9985;BMP180;16737;50.932;6.780;2023-08-06T01:27:23;99114.00;;;19.90
9985;BMP180;16737;50.932;6.780;2023-08-06T01:30:02;99105.00;;;19.90
9985;BMP180;16737;50.932;6.780;2023-08-06T01:32:34;99116.00;;;20.00
9985;BMP180;16737;50.932;6.780;2023-08-06T01:35:04;99107.00;;;20.00
9985;BMP180;16737;50.932;6.780;2023-08-06T01:37:33;99102.00;;;20.00
9985;BMP180;16737;50.932;6.780;2023-08-06T01:40:00;99099.00;;;20.00
9985;BMP180;16737;50.932;6.780;2023-08-06T01:42:27;99102.00;;;20.10
9985;BMP180;16737;50.932;6.780;2023-08-06T01:44:54;99098.00;;;20.10
9985;BMP180;16737;50.932;6.780;2023-08-06T01:47:21;99095.00;;;20.10
9985;BMP180;16737;50.932;6.780;2023-08-06T01:49:48;99097.00;;;20.20
9985;BMP180;16737;50.932;6.780;2023-08-06T01:52:18;99093.00;;;20.20
9985;BMP180;16737;50.932;6.780;2023-08-06T01:54:46;99095.00;;;20.20
9985;BMP180;16737;50.932;6.780;2023-08-06T01:57:13;99096.00;;;20.20
9985;BMP180;16737;50.932;6.780;2023-08-06T01:59:40;99092.00;;;20.20
9985;BMP180;16737;50.932;6.780;2023-08-06T02:02:07;99088.00;;;20.20
9985;BMP180;16737;50.932;6.780;2023-08-06T02:04:35;99083.00;;;20.10
9985;BMP180;16737;50.932;6.780;2023-08-06T02:07:02;99071.00;;;20.10
9985;BMP180;16737;50.932;6.780;2023-08-06T02:09:29;99078.00;;;20.10
9985;BMP180;16737;50.932;6.780;2023-08-06T02:12:03;99072.00;;;20.10
9985;BMP180;16737;50.932;6.780;2023-08-06T02:14:30;99079.00;;;20.10
9985;BMP180;16737;50.932;6.780;2023-08-06T02:16:58;99074.00;;;20.10
9985;BMP180;16737;50.932;6.780;2023-08-06T02:19:25;99078.00;;;20.20
9985;BMP180;16737;50.932;6.780;2023-08-06T02:21:52;99065.00;;;20.20
9985;BMP180;16737;50.932;6.780;2023-08-06T02:24:22;99066.00;;;20.20
9985;BMP180;16737;50.932;6.780;2023-08-06T02:26:49;99064.00;;;20.20
9985;BMP180;16737;50.932;6.780;2023-08-06T02:29:18;99064.00;;;20.20
9985;BMP180;16737;50.932;6.780;2023-08-06T02:31:45;99065.00;;;20.20
9985;BMP180;16737;50.932;6.780;2023-08-06T02:34:17;99064.00;;;20.30
9985;BMP180;16737;50.932;6.780;2023-08-06T02:36:43;99062.00;;;20.20
9985;BMP180;16737;50.932;6.780;2023-08-06T02:39:10;99057.00;;;20.30
9985;BMP180;16737;50.932;6.780;2023-08-06T02:41:37;99049.00;;;20.30
9985;BMP180;16737;50.932;6.780;2023-08-06T02:44:04;99056.00;;;20.30
9985;BMP180;16737;50.932;6.780;2023-08-06T02:46:33;99049.00;;;20.30
9985;BMP180;16737;50.932;6.780;2023-08-06T02:48:59;99049.00;;;20.30
9985;BMP180;16737;50.932;6.780;2023-08-06T02:51:26;99053.00;;;20.30
9985;BMP180;16737;50.932;6.780;2023-08-06T02:53:53;99042.00;;;20.30
9985;BMP180;16737;50.932;6.780;2023-08-06T02:56:20;99048.00;;;20.30
9985;BMP180;16737;50.932;6.780;2023-08-06T02:58:47;99044.00;;;20.30
9985;BMP180;16737;50.932;6.780;2023-08-06T03:01:14;99048.00;;;20.30
9985;BMP180;16737;50.932;6.780;2023-08-06T03:03:42;99035.00;;;20.20
9985;BMP180;16737;50.932;6.780;2023-08-06T03:06:09;99037.00;;;20.20
9985;BMP180;16737;50.932;6.780;2023-08-06T03:08:40;99037.00;;;20.20
9985;BMP180;16737;50.932;6.780;2023-08-06T03:11:07;99044.00;;;20.20
9985;BMP180;16737;50.932;6.780;2023-08-06T03:13:34;99034.00;;;20.10
9985;BMP180;16737;50.932;6.780;2023-08-06T03:16:01;99027.00;;;20.10
9985;BMP180;16737;50.932;6.780;2023-08-06T03:18:28;99038.00;;;20.10
9985;BMP180;16737;50.932;6.780;2023-08-06T03:20:56;99035.00;;;20.10
9985;BMP180;16737;50.932;6.780;2023-08-06T03:23:23;99036.00;;;20.10
9985;BMP180;16737;50.932;6.780;2023-08-06T03:25:50;99038.00;;;20.10
9985;BMP180;16737;50.932;6.780;2023-08-06T03:28:17;99030.00;;;20.10
9985;BMP180;16737;50.932;6.780;2023-08-06T03:30:44;99028.00;;;20.10
9985;BMP180;16737;50.932;6.780;2023-08-06T03:33:11;99037.00;;;20.10
9985;BMP180;16737;50.932;6.780;2023-08-06T03:35:38;99035.00;;;20.10
9985;BMP180;16737;50.932;6.780;2023-08-06T03:38:06;99028.00;;;20.10
9985;BMP180;16737;50.932;6.780;2023-08-06T03:40:35;99021.00;;;20.10
9985;BMP180;16737;50.932;6.780;2023-08-06T03:43:02;99031.00;;;20.10
9985;BMP180;16737;50.932;6.780;2023-08-06T03:45:33;99034.00;;;20.10
9985;BMP180;16737;50.932;6.780;2023-08-06T03:47:59;99032.00;;;20.10
9985;BMP180;16737;50.932;6.780;2023-08-06T03:50:26;99017.00;;;20.00
9985;BMP180;16737;50.932;6.780;2023-08-06T03:52:53;99022.00;;;20.10
9985;BMP180;16737;50.932;6.780;2023-08-06T03:55:22;98987.00;;;20.10
9985;BMP180;16737;50.932;6.780;2023-08-06T03:57:49;99025.00;;;20.00
9985;BMP180;16737;50.932;6.780;2023-08-06T04:00:16;99023.00;;;20.00
9985;BMP180;16737;50.932;6.780;2023-08-06T04:02:43;99020.00;;;20.00
9985;BMP180;16737;50.932;6.780;2023-08-06T04:05:10;99030.00;;;20.00
9985;BMP180;16737;50.932;6.780;2023-08-06T04:07:37;99025.00;;;20.00
9985;BMP180;16737;50.932;6.780;2023-08-06T04:10:05;99024.00;;;19.90
9985;BMP180;16737;50.932;6.780;2023-08-06T04:12:33;99022.00;;;19.90
9985;BMP180;16737;50.932;6.780;2023-08-06T04:15:04;99017.00;;;19.90
9985;BMP180;16737;50.932;6.780;2023-08-06T04:17:32;99017.00;;;19.90
9985;BMP180;16737;50.932;6.780;2023-08-06T04:19:59;98982.00;;;19.90
9985;BMP180;16737;50.932;6.780;2023-08-06T04:22:26;99016.00;;;19.90
9985;BMP180;16737;50.932;6.780;2023-08-06T04:24:53;99013.00;;;19.90
9985;BMP180;16737;50.932;6.780;2023-08-06T04:27:20;99018.00;;;20.00
9985;BMP180;16737;50.932;6.780;2023-08-06T04:29:48;99018.00;;;20.00
9985;BMP180;16737;50.932;6.780;2023-08-06T04:32:15;99020.00;;;20.00
9985;BMP180;16737;50.932;6.780;2023-08-06T04:34:43;99015.00;;;20.10
9985;BMP180;16737;50.932;6.780;2023-08-06T04:37:10;99018.00;;;20.10
9985;BMP180;16737;50.932;6.780;2023-08-06T04:39:37;99008.00;;;20.20
9985;BMP180;16737;50.932;6.780;2023-08-06T04:42:09;99021.00;;;20.20
9985;BMP180;16737;50.932;6.780;2023-08-06T04:44:36;99011.00;;;20.20
9985;BMP180;16737;50.932;6.780;2023-08-06T04:47:05;99007.00;;;20.30
9985;BMP180;16737;50.932;6.780;2023-08-06T04:49:32;99025.00;;;20.20
9985;BMP180;16737;50.932;6.780;2023-08-06T04:51:59;99013.00;;;20.30
9985;BMP180;16737;50.932;6.780;2023-08-06T04:54:26;99016.00;;;20.30
9985;BMP180;16737;50.932;6.780;2023-08-06T04:56:53;99014.00;;;20.40
9985;BMP180;16737;50.932;6.780;2023-08-06T04:59:20;98968.00;;;20.40
9985;BMP180;16737;50.932;6.780;2023-08-06T05:01:47;99022.00;;;20.40
9985;BMP180;16737;50.932;6.780;2023-08-06T05:04:15;99021.00;;;20.40
9985;BMP180;16737;50.932;6.780;2023-08-06T05:06:42;99021.00;;;20.50
9985;BMP180;16737;50.932;6.780;2023-08-06T05:09:09;99025.00;;;20.50
9985;BMP180;16737;50.932;6.780;2023-08-06T05:11:36;99022.00;;;20.50
9985;BMP180;16737;50.932;6.780;2023-08-06T05:14:02;99021.00;;;20.50
9985;BMP180;16737;50.932;6.780;2023-08-06T05:16:29;99023.00;;;20.50
9985;BMP180;16737;50.932;6.780;2023-08-06T05:18:56;99027.00;;;20.50
9985;BMP180;16737;50.932;6.780;2023-08-06T05:21:24;99029.00;;;20.50
9985;BMP180;16737;50.932;6.780;2023-08-06T05:23:51;99027.00;;;20.50
9985;BMP180;16737;50.932;6.780;2023-08-06T05:26:18;99033.00;;;20.50
9985;BMP180;16737;50.932;6.780;2023-08-06T05:28:52;98993.00;;;20.50
9985;BMP180;16737;50.932;6.780;2023-08-06T05:31:19;99030.00;;;20.50
9985;BMP180;16737;50.932;6.780;2023-08-06T05:33:46;99028.00;;;20.60
9985;BMP180;16737;50.932;6.780;2023-08-06T05:36:13;99037.00;;;20.60
9985;BMP180;16737;50.932;6.780;2023-08-06T05:38:41;99039.00;;;20.60
9985;BMP180;16737;50.932;6.780;2023-08-06T05:41:09;99039.00;;;20.60
9985;BMP180;16737;50.932;6.780;2023-08-06T05:43:36;99041.00;;;20.60
9985;BMP180;16737;50.932;6.780;2023-08-06T05:46:03;99041.00;;;20.60
9985;BMP180;16737;50.932;6.780;2023-08-06T05:48:30;99052.00;;;20.60
9985;BMP180;16737;50.932;6.780;2023-08-06T05:50:57;99038.00;;;20.60
9985;BMP180;16737;50.932;6.780;2023-08-06T05:53:24;99050.00;;;20.60
9985;BMP180;16737;50.932;6.780;2023-08-06T05:55:53;99043.00;;;20.60
9985;BMP180;16737;50.932;6.780;2023-08-06T05:58:19;99049.00;;;20.60
9985;BMP180;16737;50.932;6.780;2023-08-06T06:00:46;99050.00;;;20.60
9985;BMP180;16737;50.932;6.780;2023-08-06T06:03:13;99041.00;;;20.60
9985;BMP180;16737;50.932;6.780;2023-08-06T06:05:40;99051.00;;;20.70
9985;BMP180;16737;50.932;6.780;2023-08-06T06:08:07;99062.00;;;20.70
9985;BMP180;16737;50.932;6.780;2023-08-06T06:10:35;99058.00;;;20.70
9985;BMP180;16737;50.932;6.780;2023-08-06T06:13:03;99057.00;;;20.70
9985;BMP180;16737;50.932;6.780;2023-08-06T06:15:30;99063.00;;;20.80
9985;BMP180;16737;50.932;6.780;2023-08-06T06:17:57;99066.00;;;20.80
9985;BMP180;16737;50.932;6.780;2023-08-06T06:20:24;99063.00;;;20.80
9985;BMP180;16737;50.932;6.780;2023-08-06T06:22:51;99071.00;;;20.90
9985;BMP180;16737;50.932;6.780;2023-08-06T06:25:18;99067.00;;;20.80
9985;BMP180;16737;50.932;6.780;2023-08-06T06:27:45;99072.00;;;20.90
9985;BMP180;16737;50.932;6.780;2023-08-06T06:30:13;99080.00;;;20.90
9985;BMP180;16737;50.932;6.780;2023-08-06T06:32:40;99083.00;;;20.90
9985;BMP180;16737;50.932;6.780;2023-08-06T06:35:08;99080.00;;;20.90
9985;BMP180;16737;50.932;6.780;2023-08-06T06:37:35;99084.00;;;20.90
9985;BMP180;16737;50.932;6.780;2023-08-06T06:40:02;99081.00;;;20.90
9985;BMP180;16737;50.932;6.780;2023-08-06T06:42:29;99086.00;;;20.90
9985;BMP180;16737;50.932;6.780;2023-08-06T06:44:56;99081.00;;;20.90
9985;BMP180;16737;50.932;6.780;2023-08-06T06:47:25;99079.00;;;20.90
9985;BMP180;16737;50.932;6.780;2023-08-06T06:49:52;99080.00;;;20.90
9985;BMP180;16737;50.932;6.780;2023-08-06T06:52:19;99090.00;;;20.90
9985;BMP180;16737;50.932;6.780;2023-08-06T06:54:46;99077.00;;;20.80
9985;BMP180;16737;50.932;6.780;2023-08-06T06:57:13;99090.00;;;20.80
9985;BMP180;16737;50.932;6.780;2023-08-06T06:59:40;99090.00;;;20.70
9985;BMP180;16737;50.932;6.780;2023-08-06T07:02:08;99094.00;;;20.70
9985;BMP180;16737;50.932;6.780;2023-08-06T07:04:36;99092.00;;;20.70
9985;BMP180;16737;50.932;6.780;2023-08-06T07:07:03;99103.00;;;20.60
9985;BMP180;16737;50.932;6.780;2023-08-06T07:09:33;99102.00;;;20.60
9985;BMP180;16737;50.932;6.780;2023-08-06T07:12:01;99103.00;;;20.60
9985;BMP180;16737;50.932;6.780;2023-08-06T07:14:29;99103.00;;;20.60
9985;BMP180;16737;50.932;6.780;2023-08-06T07:16:56;99105.00;;;20.50
9985;BMP180;16737;50.932;6.780;2023-08-06T07:19:23;99108.00;;;20.50
9985;BMP180;16737;50.932;6.780;2023-08-06T07:21:52;99096.00;;;20.50
9985;BMP180;16737;50.932;6.780;2023-08-06T07:24:19;99112.00;;;20.50
9985;BMP180;16737;50.932;6.780;2023-08-06T07:26:46;99099.00;;;20.50
9985;BMP180;16737;50.932;6.780;2023-08-06T07:29:13;99107.00;;;20.50
9985;BMP180;16737;50.932;6.780;2023-08-06T07:31:45;99109.00;;;20.60
9985;BMP180;16737;50.932;6.780;2023-08-06T07:34:12;99110.00;;;20.60
9985;BMP180;16737;50.932;6.780;2023-08-06T07:36:39;99111.00;;;20.60
9985;BMP180;16737;50.932;6.780;2023-08-06T07:39:07;99122.00;;;20.60
9985;BMP180;16737;50.932;6.780;2023-08-06T07:41:35;99112.00;;;20.60
9985;BMP180;16737;50.932;6.780;2023-08-06T07:44:02;99122.00;;;20.60
9985;BMP180;16737;50.932;6.780;2023-08-06T07:46:29;99106.00;;;20.70
9985;BMP180;16737;50.932;6.780;2023-08-06T07:48:56;99111.00;;;20.70
9985;BMP180;16737;50.932;6.780;2023-08-06T07:51:23;99103.00;;;20.70
9985;BMP180;16737;50.932;6.780;2023-08-06T07:53:51;99130.00;;;20.80
9985;BMP180;16737;50.932;6.780;2023-08-06T07:56:21;99079.00;;;20.90
9985;BMP180;16737;50.932;6.780;2023-08-06T07:58:48;99115.00;;;20.90
9985;BMP180;16737;50.932;6.780;2023-08-06T08:01:15;99112.00;;;20.90
9985;BMP180;16737;50.932;6.780;2023-08-06T08:03:42;99122.00;;;21.00
9985;BMP180;16737;50.932;6.780;2023-08-06T08:06:09;99102.00;;;21.00
9985;BMP180;16737;50.932;6.780;2023-08-06T08:08:36;99129.00;;;21.10
9985;BMP180;16737;50.932;6.780;2023-08-06T08:11:05;99130.00;;;21.10
9985;BMP180;16737;50.932;6.780;2023-08-06T08:13:33;99125.00;;;21.10
9985;BMP180;16737;50.932;6.780;2023-08-06T08:16:01;99135.00;;;21.10
9985;BMP180;16737;50.932;6.780;2023-08-06T08:18:28;99131.00;;;21.10
9985;BMP180;16737;50.932;6.780;2023-08-06T08:20:57;99131.00;;;21.10
9985;BMP180;16737;50.932;6.780;2023-08-06T08:23:24;99133.00;;;21.10
9985;BMP180;16737;50.932;6.780;2023-08-06T08:25:51;99135.00;;;21.10
9985;BMP180;16737;50.932;6.780;2023-08-06T08:28:18;99140.00;;;21.10
9985;BMP180;16737;50.932;6.780;2023-08-06T08:30:46;99095.00;;;21.10
9985;BMP180;16737;50.932;6.780;2023-08-06T08:33:13;99141.00;;;21.10
9985;BMP180;16737;50.932;6.780;2023-08-06T08:35:40;99143.00;;;21.10
9985;BMP180;16737;50.932;6.780;2023-08-06T08:38:07;99151.00;;;21.10
9985;BMP180;16737;50.932;6.780;2023-08-06T08:40:43;99151.00;;;21.20
9985;BMP180;16737;50.932;6.780;2023-08-06T08:43:13;99152.00;;;21.20
9985;BMP180;16737;50.932;6.780;2023-08-06T08:45:42;99159.00;;;21.20
9985;BMP180;16737;50.932;6.780;2023-08-06T08:48:13;99123.00;;;21.30
9985;BMP180;16737;50.932;6.780;2023-08-06T08:50:42;99165.00;;;21.20
9985;BMP180;16737;50.932;6.780;2023-08-06T08:53:11;99158.00;;;21.20
9985;BMP180;16737;50.932;6.780;2023-08-06T08:55:40;99164.00;;;21.20
9985;BMP180;16737;50.932;6.780;2023-08-06T08:58:07;99167.00;;;21.20
9985;BMP180;16737;50.932;6.780;2023-08-06T09:00:35;99164.00;;;21.30
9985;BMP180;16737;50.932;6.780;2023-08-06T09:03:05;99166.00;;;21.30
9985;BMP180;16737;50.932;6.780;2023-08-06T09:05:35;99171.00;;;21.30
9985;BMP180;16737;50.932;6.780;2023-08-06T09:08:04;99174.00;;;21.30
9985;BMP180;16737;50.932;6.780;2023-08-06T09:10:31;99175.00;;;21.30
9985;BMP180;16737;50.932;6.780;2023-08-06T09:12:58;99185.00;;;21.40
9985;BMP180;16737;50.932;6.780;2023-08-06T09:15:27;99184.00;;;21.30
9985;BMP180;16737;50.932;6.780;2023-08-06T09:17:55;99188.00;;;21.40
9985;BMP180;16737;50.932;6.780;2023-08-06T09:20:22;99196.00;;;21.40
9985;BMP180;16737;50.932;6.780;2023-08-06T09:22:53;99191.00;;;21.30
9985;BMP180;16737;50.932;6.780;2023-08-06T09:25:23;99196.00;;;21.30
9985;BMP180;16737;50.932;6.780;2023-08-06T09:27:52;99199.00;;;21.30
9985;BMP180;16737;50.932;6.780;2023-08-06T09:30:30;99198.00;;;21.30
9985;BMP180;16737;50.932;6.780;2023-08-06T09:32:58;99203.00;;;21.30
9985;BMP180;16737;50.932;6.780;2023-08-06T09:35:29;99203.00;;;21.20
9985;BMP180;16737;50.932;6.780;2023-08-06T09:38:09;99212.00;;;21.10
9985;BMP180;16737;50.932;6.780;2023-08-06T09:40:39;99207.00;;;21.20
9985;BMP180;16737;50.932;6.780;2023-08-06T09:43:07;99222.00;;;21.10
9985;BMP180;16737;50.932;6.780;2023-08-06T09:45:35;99224.00;;;21.10
9985;BMP180;16737;50.932;6.780;2023-08-06T09:48:05;99214.00;;;21.00
9985;BMP180;16737;50.932;6.780;2023-08-06T09:50:34;99234.00;;;20.90
9985;BMP180;16737;50.932;6.780;2023-08-06T09:53:05;99237.00;;;20.80
9985;BMP180;16737;50.932;6.780;2023-08-06T09:55:33;99242.00;;;20.70
9985;BMP180;16737;50.932;6.780;2023-08-06T09:58:00;99244.00;;;20.60
9985;BMP180;16737;50.932;6.780;2023-08-06T10:00:28;99247.00;;;20.50
9985;BMP180;16737;50.932;6.780;2023-08-06T10:03:00;99244.00;;;20.40
9985;BMP180;16737;50.932;6.780;2023-08-06T10:05:28;99257.00;;;20.30
9985;BMP180;16737;50.932;6.780;2023-08-06T10:08:02;99258.00;;;20.00
9985;BMP180;16737;50.932;6.780;2023-08-06T10:10:31;99263.00;;;20.10
9985;BMP180;16737;50.932;6.780;2023-08-06T10:12:59;99268.00;;;20.00
9985;BMP180;16737;50.932;6.780;2023-08-06T10:15:31;99269.00;;;19.90
9985;BMP180;16737;50.932;6.780;2023-08-06T10:18:00;99270.00;;;19.80
9985;BMP180;16737;50.932;6.780;2023-08-06T10:20:33;99278.00;;;19.80
9985;BMP180;16737;50.932;6.780;2023-08-06T10:23:06;99284.00;;;19.70
9985;BMP180;16737;50.932;6.780;2023-08-06T10:25:35;99286.00;;;19.70
9985;BMP180;16737;50.932;6.780;2023-08-06T10:28:11;99289.00;;;19.60
9985;BMP180;16737;50.932;6.780;2023-08-06T10:30:43;99297.00;;;19.50
9985;BMP180;16737;50.932;6.780;2023-08-06T10:33:19;99294.00;;;19.40
9985;BMP180;16737;50.932;6.780;2023-08-06T10:35:48;99299.00;;;19.30
9985;BMP180;16737;50.932;6.780;2023-08-06T10:38:19;99313.00;;;19.30
9985;BMP180;16737;50.932;6.780;2023-08-06T10:40:52;99316.00;;;19.20
9985;BMP180;16737;50.932;6.780;2023-08-06T10:43:28;99319.00;;;19.20
9985;BMP180;16737;50.932;6.780;2023-08-06T10:45:57;99330.00;;;19.10
9985;BMP180;16737;50.932;6.780;2023-08-06T10:48:33;99334.00;;;19.10
9985;BMP180;16737;50.932;6.780;2023-08-06T10:51:02;99325.00;;;19.00
9985;BMP180;16737;50.932;6.780;2023-08-06T10:53:38;99344.00;;;19.00
9985;BMP180;16737;50.932;6.780;2023-08-06T10:56:12;99339.00;;;18.90
9985;BMP180;16737;50.932;6.780;2023-08-06T10:58:39;99328.00;;;18.90
9985;BMP180;16737;50.932;6.780;2023-08-06T11:01:06;99350.00;;;18.90
9985;BMP180;16737;50.932;6.780;2023-08-06T11:03:34;99353.00;;;18.80
9985;BMP180;16737;50.932;6.780;2023-08-06T11:06:01;99344.00;;;18.80
9985;BMP180;16737;50.932;6.780;2023-08-06T11:08:33;99334.00;;;18.80
9985;BMP180;16737;50.932;6.780;2023-08-06T11:11:08;99364.00;;;18.80
9985;BMP180;16737;50.932;6.780;2023-08-06T11:13:37;99351.00;;;18.80
9985;BMP180;16737;50.932;6.780;2023-08-06T11:16:04;99354.00;;;18.80
9985;BMP180;16737;50.932;6.780;2023-08-06T11:18:32;99356.00;;;18.70
9985;BMP180;16737;50.932;6.780;2023-08-06T11:21:00;99354.00;;;18.80
9985;BMP180;16737;50.932;6.780;2023-08-06T11:23:27;99356.00;;;18.80
9985;BMP180;16737;50.932;6.780;2023-08-06T11:25:57;99361.00;;;18.80
9985;BMP180;16737;50.932;6.780;2023-08-06T11:28:31;99364.00;;;18.80
9985;BMP180;16737;50.932;6.780;2023-08-06T11:30:59;99369.00;;;18.80
9985;BMP180;16737;50.932;6.780;2023-08-06T11:33:28;99371.00;;;18.80
9985;BMP180;16737;50.932;6.780;2023-08-06T11:35:58;99382.00;;;18.80
9985;BMP180;16737;50.932;6.780;2023-08-06T11:38:25;99360.00;;;18.90
9985;BMP180;16737;50.932;6.780;2023-08-06T11:40:53;99375.00;;;18.90
9985;BMP180;16737;50.932;6.780;2023-08-06T11:43:22;99373.00;;;18.90
9985;BMP180;16737;50.932;6.780;2023-08-06T11:45:50;99380.00;;;18.90
9985;BMP180;16737;50.932;6.780;2023-08-06T11:48:24;99381.00;;;18.90
9985;BMP180;16737;50.932;6.780;2023-08-06T11:50:54;99375.00;;;18.90
9985;BMP180;16737;50.932;6.780;2023-08-06T11:53:28;99382.00;;;19.00
9985;BMP180;16737;50.932;6.780;2023-08-06T11:55:55;99384.00;;;19.00
9985;BMP180;16737;50.932;6.780;2023-08-06T11:58:24;99377.00;;;19.00
9985;BMP180;16737;50.932;6.780;2023-08-06T12:00:51;99395.00;;;19.00
9985;BMP180;16737;50.932;6.780;2023-08-06T12:03:19;99378.00;;;19.10
9985;BMP180;16737;50.932;6.780;2023-08-06T12:05:54;99394.00;;;19.10
9985;BMP180;16737;50.932;6.780;2023-08-06T12:08:20;99327.00;;;19.10
9985;BMP180;16737;50.932;6.780;2023-08-06T12:10:53;99390.00;;;19.20
9985;BMP180;16737;50.932;6.780;2023-08-06T12:13:19;99398.00;;;19.20
9985;BMP180;16737;50.932;6.780;2023-08-06T12:15:48;99392.00;;;19.30
9985;BMP180;16737;50.932;6.780;2023-08-06T12:18:15;99398.00;;;19.30
9985;BMP180;16737;50.932;6.780;2023-08-06T12:20:42;99395.00;;;19.30
9985;BMP180;16737;50.932;6.780;2023-08-06T12:23:09;99397.00;;;19.40
9985;BMP180;16737;50.932;6.780;2023-08-06T12:25:40;99393.00;;;19.40
9985;BMP180;16737;50.932;6.780;2023-08-06T12:28:07;99405.00;;;19.40
9985;BMP180;16737;50.932;6.780;2023-08-06T12:30:35;99409.00;;;19.50
9985;BMP180;16737;50.932;6.780;2023-08-06T12:33:03;99365.00;;;19.50
9985;BMP180;16737;50.932;6.780;2023-08-06T12:35:34;99410.00;;;19.50
9985;BMP180;16737;50.932;6.780;2023-08-06T12:38:01;99419.00;;;19.50
9985;BMP180;16737;50.932;6.780;2023-08-06T12:40:28;99411.00;;;19.50
9985;BMP180;16737;50.932;6.780;2023-08-06T12:42:55;99419.00;;;19.60
9985;BMP180;16737;50.932;6.780;2023-08-06T12:45:22;99423.00;;;19.60
9985;BMP180;16737;50.932;6.780;2023-08-06T12:47:49;99430.00;;;19.60
9985;BMP180;16737;50.932;6.780;2023-08-06T12:50:17;99428.00;;;19.60
9985;BMP180;16737;50.932;6.780;2023-08-06T12:52:44;99425.00;;;19.60
9985;BMP180;16737;50.932;6.780;2023-08-06T12:55:11;99440.00;;;19.60
9985;BMP180;16737;50.932;6.780;2023-08-06T12:57:38;99442.00;;;19.60
9985;BMP180;16737;50.932;6.780;2023-08-06T13:00:07;99443.00;;;19.60
9985;BMP180;16737;50.932;6.780;2023-08-06T13:02:34;99450.00;;;19.60
9985;BMP180;16737;50.932;6.780;2023-08-06T13:05:01;99422.00;;;19.60
9985;BMP180;16737;50.932;6.780;2023-08-06T13:07:32;99452.00;;;19.60
9985;BMP180;16737;50.932;6.780;2023-08-06T13:09:59;99453.00;;;19.60
9985;BMP180;16737;50.932;6.780;2023-08-06T13:12:26;99454.00;;;19.60
9985;BMP180;16737;50.932;6.780;2023-08-06T13:14:53;99450.00;;;19.70
9985;BMP180;16737;50.932;6.780;2023-08-06T13:17:23;99453.00;;;19.70
9985;BMP180;16737;50.932;6.780;2023-08-06T13:19:50;99468.00;;;19.70
9985;BMP180;16737;50.932;6.780;2023-08-06T13:22:17;99464.00;;;19.70
9985;BMP180;16737;50.932;6.780;2023-08-06T13:24:45;99456.00;;;19.70
9985;BMP180;16737;50.932;6.780;2023-08-06T13:27:12;99468.00;;;19.70
9985;BMP180;16737;50.932;6.780;2023-08-06T13:29:39;99469.00;;;19.70
9985;BMP180;16737;50.932;6.780;2023-08-06T13:32:06;99472.00;;;19.70
9985;BMP180;16737;50.932;6.780;2023-08-06T13:34:33;99485.00;;;19.70
9985;BMP180;16737;50.932;6.780;2023-08-06T13:37:00;99472.00;;;19.70
9985;BMP180;16737;50.932;6.780;2023-08-06T13:39:30;99473.00;;;19.70
9985;BMP180;16737;50.932;6.780;2023-08-06T13:41:58;99484.00;;;19.70
9985;BMP180;16737;50.932;6.780;2023-08-06T13:44:25;99480.00;;;19.60
9985;BMP180;16737;50.932;6.780;2023-08-06T13:46:52;99487.00;;;19.70
9985;BMP180;16737;50.932;6.780;2023-08-06T13:49:19;99468.00;;;19.70
9985;BMP180;16737;50.932;6.780;2023-08-06T13:51:46;99487.00;;;19.80
9985;BMP180;16737;50.932;6.780;2023-08-06T13:54:13;99484.00;;;19.60
9985;BMP180;16737;50.932;6.780;2023-08-06T13:56:40;99493.00;;;19.90
9985;BMP180;16737;50.932;6.780;2023-08-06T13:59:09;99485.00;;;19.90
9985;BMP180;16737;50.932;6.780;2023-08-06T14:01:39;99492.00;;;19.90
9985;BMP180;16737;50.932;6.780;2023-08-06T14:04:06;99504.00;;;19.90
9985;BMP180;16737;50.932;6.780;2023-08-06T14:06:33;99510.00;;;19.90
9985;BMP180;16737;50.932;6.780;2023-08-06T14:09:00;99509.00;;;19.90
9985;BMP180;16737;50.932;6.780;2023-08-06T14:11:27;99512.00;;;19.80
9985;BMP180;16737;50.932;6.780;2023-08-06T14:13:52;99517.00;;;19.70
9985;BMP180;16737;50.932;6.780;2023-08-06T14:16:21;99508.00;;;19.80
9985;BMP180;16737;50.932;6.780;2023-08-06T14:18:48;99511.00;;;19.80
9985;BMP180;16737;50.932;6.780;2023-08-06T14:21:15;99520.00;;;19.80
9985;BMP180;16737;50.932;6.780;2023-08-06T14:23:42;99522.00;;;19.80
9985;BMP180;16737;50.932;6.780;2023-08-06T14:26:09;99515.00;;;19.80